sensor_id;sensor_type;location;lat;lon;timestamp;P1;durP1;ratioP1;P2;durP2;ratioP2
52956;SDS011;38819;42.692;23.342;2023-05-27T00:01:58;22.15;;;13.68;;
52956;SDS011;38819;42.692;23.342;2023-05-27T00:04:24;21.63;;;13.27;;
52956;SDS011;38819;42.692;23.342;2023-05-27T00:06:49;22.05;;;12.95;;
52956;SDS011;38819;42.692;23.342;2023-05-27T00:09:14;17.92;;;13.40;;
52956;SDS011;38819;42.692;23.342;2023-05-27T00:11:40;15.48;;;12.07;;
52956;SDS011;38819;42.692;23.342;2023-05-27T00:14:05;16.88;;;12.30;;
52956;SDS011;38819;42.692;23.342;2023-05-27T00:16:31;18.38;;;12.23;;
52956;SDS011;38819;42.692;23.342;2023-05-27T00:18:56;17.23;;;10.68;;
52956;SDS011;38819;42.692;23.342;2023-05-27T00:21:22;12.18;;;10.50;;
52956;SDS011;38819;42.692;23.342;2023-05-27T00:23:50;15.90;;;11.05;;
52956;SDS011;38819;42.692;23.342;2023-05-27T00:26:16;12.18;;;10.52;;
52956;SDS011;38819;42.692;23.342;2023-05-27T00:28:42;14.10;;;10.70;;
52956;SDS011;38819;42.692;23.342;2023-05-27T00:31:08;14.43;;;8.45;;
52956;SDS011;38819;42.692;23.342;2023-05-27T00:33:34;12.60;;;8.55;;
52956;SDS011;38819;42.692;23.342;2023-05-27T00:35:59;7.75;;;6.95;;
52956;SDS011;38819;42.692;23.342;2023-05-27T00:38:25;10.38;;;7.00;;
52956;SDS011;38819;42.692;23.342;2023-05-27T00:40:51;8.80;;;6.45;;
52956;SDS011;38819;42.692;23.342;2023-05-27T00:43:18;9.98;;;6.65;;
52956;SDS011;38819;42.692;23.342;2023-05-27T00:45:43;8.43;;;6.00;;
52956;SDS011;38819;42.692;23.342;2023-05-27T00:48:09;6.35;;;5.75;;
52956;SDS011;38819;42.692;23.342;2023-05-27T00:50:35;8.02;;;5.47;;
52956;SDS011;38819;42.692;23.342;2023-05-27T00:53:01;7.80;;;6.18;;
52956;SDS011;38819;42.692;23.342;2023-05-27T00:55:27;7.95;;;6.15;;
52956;SDS011;38819;42.692;23.342;2023-05-27T00:57:52;6.93;;;5.80;;
52956;SDS011;38819;42.692;23.342;2023-05-27T01:00:19;11.45;;;6.00;;
52956;SDS011;38819;42.692;23.342;2023-05-27T01:02:45;6.72;;;5.72;;
52956;SDS011;38819;42.692;23.342;2023-05-27T01:05:12;6.55;;;5.78;;
52956;SDS011;38819;42.692;23.342;2023-05-27T01:10:27;5.20;;;4.70;;
52956;SDS011;38819;42.692;23.342;2023-05-27T01:15:59;7.25;;;5.03;;
52956;SDS011;38819;42.692;23.342;2023-05-27T01:18:26;7.60;;;4.53;;
52956;SDS011;38819;42.692;23.342;2023-05-27T01:20:55;13.20;;;5.80;;
52956;SDS011;38819;42.692;23.342;2023-05-27T01:23:26;8.32;;;5.07;;
52956;SDS011;38819;42.692;23.342;2023-05-27T01:25:52;6.72;;;5.70;;
52956;SDS011;38819;42.692;23.342;2023-05-27T01:28:17;5.55;;;5.03;;
52956;SDS011;38819;42.692;23.342;2023-05-27T01:30:43;6.85;;;4.82;;
52956;SDS011;38819;42.692;23.342;2023-05-27T01:33:09;8.13;;;5.00;;
52956;SDS011;38819;42.692;23.342;2023-05-27T01:35:43;7.20;;;4.68;;
52956;SDS011;38819;42.692;23.342;2023-05-27T01:38:16;8.90;;;4.75;;
52956;SDS011;38819;42.692;23.342;2023-05-27T01:40:43;4.90;;;4.10;;
52956;SDS011;38819;42.692;23.342;2023-05-27T01:43:09;5.40;;;4.73;;
52956;SDS011;38819;42.692;23.342;2023-05-27T01:48:02;4.60;;;4.20;;
52956;SDS011;38819;42.692;23.342;2023-05-27T01:50:28;4.97;;;4.43;;
52956;SDS011;38819;42.692;23.342;2023-05-27T01:52:55;5.70;;;4.20;;
52956;SDS011;38819;42.692;23.342;2023-05-27T01:55:21;6.20;;;4.53;;
52956;SDS011;38819;42.692;23.342;2023-05-27T01:57:47;5.25;;;4.45;;
52956;SDS011;38819;42.692;23.342;2023-05-27T02:00:13;5.15;;;4.72;;
52956;SDS011;38819;42.692;23.342;2023-05-27T02:02:40;4.95;;;4.32;;
52956;SDS011;38819;42.692;23.342;2023-05-27T02:05:06;5.25;;;4.47;;
52956;SDS011;38819;42.692;23.342;2023-05-27T02:07:32;7.82;;;4.80;;
52956;SDS011;38819;42.692;23.342;2023-05-27T02:09:57;6.32;;;4.25;;
52956;SDS011;38819;42.692;23.342;2023-05-27T02:12:23;5.45;;;4.95;;
52956;SDS011;38819;42.692;23.342;2023-05-27T02:14:48;5.50;;;4.63;;
52956;SDS011;38819;42.692;23.342;2023-05-27T02:17:14;7.28;;;4.85;;
52956;SDS011;38819;42.692;23.342;2023-05-27T02:19:40;5.95;;;4.88;;
52956;SDS011;38819;42.692;23.342;2023-05-27T02:22:06;5.47;;;4.97;;
52956;SDS011;38819;42.692;23.342;2023-05-27T02:24:31;7.05;;;5.90;;
52956;SDS011;38819;42.692;23.342;2023-05-27T02:26:57;5.60;;;5.13;;
52956;SDS011;38819;42.692;23.342;2023-05-27T02:29:23;6.88;;;5.90;;
52956;SDS011;38819;42.692;23.342;2023-05-27T02:31:48;8.55;;;6.30;;
52956;SDS011;38819;42.692;23.342;2023-05-27T02:34:14;10.90;;;7.05;;
52956;SDS011;38819;42.692;23.342;2023-05-27T02:36:39;8.05;;;7.25;;
52956;SDS011;38819;42.692;23.342;2023-05-27T02:39:05;10.15;;;7.80;;
52956;SDS011;38819;42.692;23.342;2023-05-27T02:41:31;10.10;;;8.30;;
52956;SDS011;38819;42.692;23.342;2023-05-27T02:43:56;9.68;;;8.18;;
52956;SDS011;38819;42.692;23.342;2023-05-27T02:46:21;8.23;;;7.38;;
52956;SDS011;38819;42.692;23.342;2023-05-27T02:48:47;9.07;;;8.18;;
52956;SDS011;38819;42.692;23.342;2023-05-27T02:51:12;7.25;;;6.55;;
52956;SDS011;38819;42.692;23.342;2023-05-27T02:53:38;7.00;;;4.82;;
52956;SDS011;38819;42.692;23.342;2023-05-27T02:56:03;4.53;;;3.92;;
52956;SDS011;38819;42.692;23.342;2023-05-27T02:58:29;4.80;;;3.83;;
52956;SDS011;38819;42.692;23.342;2023-05-27T03:00:54;9.55;;;4.70;;
52956;SDS011;38819;42.692;23.342;2023-05-27T03:03:20;7.13;;;4.40;;
52956;SDS011;38819;42.692;23.342;2023-05-27T03:05:45;5.05;;;4.28;;
52956;SDS011;38819;42.692;23.342;2023-05-27T03:08:11;6.47;;;4.53;;
52956;SDS011;38819;42.692;23.342;2023-05-27T03:10:36;4.93;;;4.35;;
52956;SDS011;38819;42.692;23.342;2023-05-27T03:13:02;6.75;;;5.38;;
52956;SDS011;38819;42.692;23.342;2023-05-27T03:15:27;8.93;;;8.10;;
52956;SDS011;38819;42.692;23.342;2023-05-27T03:17:55;12.25;;;8.60;;
52956;SDS011;38819;42.692;23.342;2023-05-27T03:20:20;15.65;;;9.02;;
52956;SDS011;38819;42.692;23.342;2023-05-27T03:22:46;9.88;;;8.88;;
52956;SDS011;38819;42.692;23.342;2023-05-27T03:25:12;11.05;;;9.52;;
52956;SDS011;38819;42.692;23.342;2023-05-27T03:27:38;14.75;;;9.63;;
52956;SDS011;38819;42.692;23.342;2023-05-27T03:30:04;12.60;;;9.50;;
52956;SDS011;38819;42.692;23.342;2023-05-27T03:32:30;15.43;;;10.85;;
52956;SDS011;38819;42.692;23.342;2023-05-27T03:34:56;16.90;;;9.73;;
52956;SDS011;38819;42.692;23.342;2023-05-27T03:37:21;19.65;;;11.52;;
52956;SDS011;38819;42.692;23.342;2023-05-27T03:39:47;13.38;;;10.57;;
52956;SDS011;38819;42.692;23.342;2023-05-27T03:42:12;10.90;;;9.80;;
52956;SDS011;38819;42.692;23.342;2023-05-27T03:44:38;17.27;;;10.60;;
52956;SDS011;38819;42.692;23.342;2023-05-27T03:47:04;10.05;;;9.10;;
52956;SDS011;38819;42.692;23.342;2023-05-27T03:49:30;10.48;;;9.40;;
52956;SDS011;38819;42.692;23.342;2023-05-27T03:51:55;11.90;;;9.43;;
52956;SDS011;38819;42.692;23.342;2023-05-27T03:54:21;13.45;;;9.80;;
52956;SDS011;38819;42.692;23.342;2023-05-27T03:56:46;10.13;;;9.05;;
52956;SDS011;38819;42.692;23.342;2023-05-27T03:59:11;12.57;;;9.70;;
52956;SDS011;38819;42.692;23.342;2023-05-27T04:01:37;11.43;;;9.10;;
52956;SDS011;38819;42.692;23.342;2023-05-27T04:04:03;10.73;;;9.63;;
52956;SDS011;38819;42.692;23.342;2023-05-27T04:06:28;11.35;;;9.65;;
52956;SDS011;38819;42.692;23.342;2023-05-27T04:08:53;11.15;;;8.93;;
52956;SDS011;38819;42.692;23.342;2023-05-27T04:11:19;10.15;;;8.68;;
52956;SDS011;38819;42.692;23.342;2023-05-27T04:13:45;8.90;;;7.93;;
52956;SDS011;38819;42.692;23.342;2023-05-27T04:16:13;14.35;;;9.35;;
52956;SDS011;38819;42.692;23.342;2023-05-27T04:18:40;13.50;;;9.80;;
52956;SDS011;38819;42.692;23.342;2023-05-27T04:21:05;11.60;;;8.10;;
52956;SDS011;38819;42.692;23.342;2023-05-27T04:23:31;11.93;;;7.88;;
52956;SDS011;38819;42.692;23.342;2023-05-27T04:25:56;11.20;;;8.25;;
52956;SDS011;38819;42.692;23.342;2023-05-27T04:28:22;10.07;;;7.50;;
52956;SDS011;38819;42.692;23.342;2023-05-27T04:30:47;8.90;;;8.00;;
52956;SDS011;38819;42.692;23.342;2023-05-27T04:33:14;14.13;;;8.65;;
52956;SDS011;38819;42.692;23.342;2023-05-27T04:38:08;14.32;;;9.40;;
52956;SDS011;38819;42.692;23.342;2023-05-27T04:40:35;11.88;;;9.48;;
52956;SDS011;38819;42.692;23.342;2023-05-27T04:43:01;12.23;;;9.05;;
52956;SDS011;38819;42.692;23.342;2023-05-27T04:45:26;12.82;;;8.88;;
52956;SDS011;38819;42.692;23.342;2023-05-27T04:47:54;10.75;;;9.23;;
52956;SDS011;38819;42.692;23.342;2023-05-27T04:50:20;10.20;;;8.18;;
52956;SDS011;38819;42.692;23.342;2023-05-27T04:52:46;11.70;;;8.50;;
52956;SDS011;38819;42.692;23.342;2023-05-27T04:55:11;9.40;;;7.43;;
52956;SDS011;38819;42.692;23.342;2023-05-27T04:57:36;8.55;;;6.88;;
52956;SDS011;38819;42.692;23.342;2023-05-27T05:00:06;12.40;;;6.65;;
52956;SDS011;38819;42.692;23.342;2023-05-27T05:02:33;12.52;;;7.32;;
52956;SDS011;38819;42.692;23.342;2023-05-27T05:05:03;8.07;;;7.05;;
52956;SDS011;38819;42.692;23.342;2023-05-27T05:07:29;8.70;;;7.13;;
52956;SDS011;38819;42.692;23.342;2023-05-27T05:09:55;12.93;;;6.97;;
52956;SDS011;38819;42.692;23.342;2023-05-27T05:12:21;8.77;;;6.22;;
52956;SDS011;38819;42.692;23.342;2023-05-27T05:14:47;9.30;;;6.60;;
52956;SDS011;38819;42.692;23.342;2023-05-27T05:17:12;7.85;;;5.85;;
52956;SDS011;38819;42.692;23.342;2023-05-27T05:19:38;11.32;;;6.65;;
52956;SDS011;38819;42.692;23.342;2023-05-27T05:22:03;9.55;;;6.30;;
52956;SDS011;38819;42.692;23.342;2023-05-27T05:24:29;11.27;;;5.68;;
52956;SDS011;38819;42.692;23.342;2023-05-27T05:26:55;7.13;;;5.45;;
52956;SDS011;38819;42.692;23.342;2023-05-27T05:29:20;6.13;;;5.32;;
52956;SDS011;38819;42.692;23.342;2023-05-27T05:31:45;6.38;;;4.85;;
52956;SDS011;38819;42.692;23.342;2023-05-27T05:34:11;8.07;;;5.53;;
52956;SDS011;38819;42.692;23.342;2023-05-27T05:36:37;6.47;;;5.88;;
52956;SDS011;38819;42.692;23.342;2023-05-27T05:39:03;9.23;;;5.72;;
52956;SDS011;38819;42.692;23.342;2023-05-27T05:41:29;10.77;;;6.00;;
52956;SDS011;38819;42.692;23.342;2023-05-27T05:43:54;7.95;;;6.60;;
52956;SDS011;38819;42.692;23.342;2023-05-27T05:46:20;7.75;;;6.25;;
52956;SDS011;38819;42.692;23.342;2023-05-27T05:48:45;10.05;;;5.47;;
52956;SDS011;38819;42.692;23.342;2023-05-27T05:51:11;6.93;;;6.28;;
52956;SDS011;38819;42.692;23.342;2023-05-27T05:53:36;7.43;;;6.22;;
52956;SDS011;38819;42.692;23.342;2023-05-27T05:56:02;9.63;;;7.00;;
52956;SDS011;38819;42.692;23.342;2023-05-27T05:58:27;12.23;;;6.47;;
52956;SDS011;38819;42.692;23.342;2023-05-27T06:00:53;11.10;;;6.63;;
52956;SDS011;38819;42.692;23.342;2023-05-27T06:03:18;7.72;;;6.32;;
52956;SDS011;38819;42.692;23.342;2023-05-27T06:05:44;10.55;;;7.20;;
52956;SDS011;38819;42.692;23.342;2023-05-27T06:08:10;12.00;;;7.35;;
52956;SDS011;38819;42.692;23.342;2023-05-27T06:10:35;11.75;;;7.28;;
52956;SDS011;38819;42.692;23.342;2023-05-27T06:13:01;9.70;;;7.03;;
52956;SDS011;38819;42.692;23.342;2023-05-27T06:15:26;8.48;;;7.53;;
52956;SDS011;38819;42.692;23.342;2023-05-27T06:17:52;11.63;;;7.35;;
52956;SDS011;38819;42.692;23.342;2023-05-27T06:20:19;11.70;;;7.63;;
52956;SDS011;38819;42.692;23.342;2023-05-27T06:22:44;15.65;;;7.75;;
52956;SDS011;38819;42.692;23.342;2023-05-27T06:25:12;7.78;;;6.20;;
52956;SDS011;38819;42.692;23.342;2023-05-27T06:27:37;7.38;;;6.63;;
52956;SDS011;38819;42.692;23.342;2023-05-27T06:30:03;13.73;;;7.00;;
52956;SDS011;38819;42.692;23.342;2023-05-27T06:32:29;12.70;;;6.90;;
52956;SDS011;38819;42.692;23.342;2023-05-27T06:34:54;11.13;;;7.75;;
52956;SDS011;38819;42.692;23.342;2023-05-27T06:37:20;9.55;;;7.20;;
52956;SDS011;38819;42.692;23.342;2023-05-27T06:39:45;9.48;;;7.07;;
52956;SDS011;38819;42.692;23.342;2023-05-27T06:42:11;11.65;;;6.10;;
52956;SDS011;38819;42.692;23.342;2023-05-27T06:44:37;14.10;;;7.13;;
52956;SDS011;38819;42.692;23.342;2023-05-27T06:47:02;8.10;;;6.82;;
52956;SDS011;38819;42.692;23.342;2023-05-27T06:49:28;10.88;;;6.63;;
52956;SDS011;38819;42.692;23.342;2023-05-27T06:51:53;10.02;;;7.03;;
52956;SDS011;38819;42.692;23.342;2023-05-27T06:54:19;12.68;;;7.38;;
52956;SDS011;38819;42.692;23.342;2023-05-27T06:56:44;16.08;;;10.63;;
52956;SDS011;38819;42.692;23.342;2023-05-27T06:59:10;10.43;;;7.28;;
52956;SDS011;38819;42.692;23.342;2023-05-27T07:01:35;11.23;;;8.02;;
52956;SDS011;38819;42.692;23.342;2023-05-27T07:04:00;11.95;;;8.05;;
52956;SDS011;38819;42.692;23.342;2023-05-27T07:06:26;11.50;;;8.07;;
52956;SDS011;38819;42.692;23.342;2023-05-27T07:08:51;10.90;;;7.22;;
52956;SDS011;38819;42.692;23.342;2023-05-27T07:11:17;10.43;;;7.78;;
52956;SDS011;38819;42.692;23.342;2023-05-27T07:13:43;11.68;;;7.55;;
52956;SDS011;38819;42.692;23.342;2023-05-27T07:16:08;10.73;;;7.70;;
52956;SDS011;38819;42.692;23.342;2023-05-27T07:18:34;10.55;;;6.88;;
52956;SDS011;38819;42.692;23.342;2023-05-27T07:20:59;9.70;;;6.50;;
52956;SDS011;38819;42.692;23.342;2023-05-27T07:23:25;9.18;;;7.05;;
52956;SDS011;38819;42.692;23.342;2023-05-27T07:25:50;14.30;;;7.15;;
52956;SDS011;38819;42.692;23.342;2023-05-27T07:28:16;12.15;;;8.18;;
52956;SDS011;38819;42.692;23.342;2023-05-27T07:30:41;13.98;;;7.60;;
52956;SDS011;38819;42.692;23.342;2023-05-27T07:33:07;42.47;;;27.95;;
52956;SDS011;38819;42.692;23.342;2023-05-27T07:35:32;18.20;;;9.55;;
52956;SDS011;38819;42.692;23.342;2023-05-27T07:37:58;9.68;;;8.30;;
52956;SDS011;38819;42.692;23.342;2023-05-27T07:40:23;11.35;;;8.07;;
52956;SDS011;38819;42.692;23.342;2023-05-27T07:42:49;11.02;;;7.88;;
52956;SDS011;38819;42.692;23.342;2023-05-27T07:45:14;11.35;;;8.27;;
52956;SDS011;38819;42.692;23.342;2023-05-27T07:47:40;11.88;;;8.27;;
52956;SDS011;38819;42.692;23.342;2023-05-27T07:50:06;10.75;;;7.88;;
52956;SDS011;38819;42.692;23.342;2023-05-27T07:52:32;14.25;;;8.05;;
52956;SDS011;38819;42.692;23.342;2023-05-27T07:54:58;15.52;;;8.02;;
52956;SDS011;38819;42.692;23.342;2023-05-27T07:57:23;11.73;;;7.78;;
52956;SDS011;38819;42.692;23.342;2023-05-27T07:59:49;15.30;;;7.72;;
52956;SDS011;38819;42.692;23.342;2023-05-27T08:02:14;14.85;;;7.75;;
52956;SDS011;38819;42.692;23.342;2023-05-27T08:04:40;11.50;;;8.23;;
52956;SDS011;38819;42.692;23.342;2023-05-27T08:07:08;12.35;;;8.85;;
52956;SDS011;38819;42.692;23.342;2023-05-27T08:09:34;9.48;;;7.32;;
52956;SDS011;38819;42.692;23.342;2023-05-27T08:12:00;12.82;;;6.45;;
52956;SDS011;38819;42.692;23.342;2023-05-27T08:14:25;10.98;;;6.88;;
52956;SDS011;38819;42.692;23.342;2023-05-27T08:16:52;12.23;;;6.05;;
52956;SDS011;38819;42.692;23.342;2023-05-27T08:19:18;10.65;;;5.68;;
52956;SDS011;38819;42.692;23.342;2023-05-27T08:21:44;10.60;;;5.65;;
52956;SDS011;38819;42.692;23.342;2023-05-27T08:24:09;11.55;;;6.25;;
52956;SDS011;38819;42.692;23.342;2023-05-27T08:26:35;13.63;;;6.30;;
52956;SDS011;38819;42.692;23.342;2023-05-27T08:29:00;7.25;;;6.10;;
52956;SDS011;38819;42.692;23.342;2023-05-27T08:31:26;7.28;;;6.25;;
52956;SDS011;38819;42.692;23.342;2023-05-27T08:33:52;6.90;;;6.30;;
52956;SDS011;38819;42.692;23.342;2023-05-27T08:36:17;15.02;;;6.90;;
52956;SDS011;38819;42.692;23.342;2023-05-27T08:38:44;17.47;;;13.13;;
52956;SDS011;38819;42.692;23.342;2023-05-27T08:41:10;11.13;;;7.10;;
52956;SDS011;38819;42.692;23.342;2023-05-27T08:43:36;9.60;;;6.90;;
52956;SDS011;38819;42.692;23.342;2023-05-27T08:46:03;11.40;;;6.93;;
52956;SDS011;38819;42.692;23.342;2023-05-27T08:48:29;11.88;;;7.00;;
52956;SDS011;38819;42.692;23.342;2023-05-27T08:50:55;11.65;;;6.28;;
52956;SDS011;38819;42.692;23.342;2023-05-27T08:53:20;10.60;;;6.00;;
52956;SDS011;38819;42.692;23.342;2023-05-27T08:55:48;11.68;;;6.97;;
52956;SDS011;38819;42.692;23.342;2023-05-27T08:58:16;12.43;;;6.60;;
52956;SDS011;38819;42.692;23.342;2023-05-27T09:00:43;16.67;;;6.80;;
52956;SDS011;38819;42.692;23.342;2023-05-27T09:03:08;11.15;;;6.15;;
52956;SDS011;38819;42.692;23.342;2023-05-27T09:05:34;12.93;;;7.18;;
52956;SDS011;38819;42.692;23.342;2023-05-27T09:08:00;13.23;;;6.50;;
52956;SDS011;38819;42.692;23.342;2023-05-27T09:10:38;12.07;;;6.03;;
52956;SDS011;38819;42.692;23.342;2023-05-27T09:13:05;8.27;;;5.05;;
52956;SDS011;38819;42.692;23.342;2023-05-27T09:15:31;11.80;;;6.32;;
52956;SDS011;38819;42.692;23.342;2023-05-27T09:17:57;9.32;;;5.72;;
52956;SDS011;38819;42.692;23.342;2023-05-27T09:20:26;8.63;;;6.15;;
52956;SDS011;38819;42.692;23.342;2023-05-27T09:22:59;8.98;;;5.00;;
52956;SDS011;38819;42.692;23.342;2023-05-27T09:25:26;11.55;;;6.65;;
52956;SDS011;38819;42.692;23.342;2023-05-27T09:27:53;9.77;;;6.63;;
52956;SDS011;38819;42.692;23.342;2023-05-27T09:30:20;15.13;;;7.40;;
52956;SDS011;38819;42.692;23.342;2023-05-27T09:32:46;15.40;;;9.48;;
52956;SDS011;38819;42.692;23.342;2023-05-27T09:35:12;12.55;;;7.78;;
52956;SDS011;38819;42.692;23.342;2023-05-27T09:37:39;9.95;;;7.00;;
52956;SDS011;38819;42.692;23.342;2023-05-27T09:42:43;12.88;;;6.68;;
52956;SDS011;38819;42.692;23.342;2023-05-27T09:45:13;8.65;;;6.85;;
52956;SDS011;38819;42.692;23.342;2023-05-27T09:47:41;14.27;;;7.22;;
52956;SDS011;38819;42.692;23.342;2023-05-27T09:50:12;8.13;;;5.43;;
52956;SDS011;38819;42.692;23.342;2023-05-27T09:52:41;7.70;;;6.70;;
52956;SDS011;38819;42.692;23.342;2023-05-27T09:57:34;8.80;;;4.88;;
52956;SDS011;38819;42.692;23.342;2023-05-27T10:00:01;9.53;;;6.23;;
52956;SDS011;38819;42.692;23.342;2023-05-27T10:02:36;9.65;;;6.05;;
52956;SDS011;38819;42.692;23.342;2023-05-27T10:05:02;12.93;;;5.97;;
52956;SDS011;38819;42.692;23.342;2023-05-27T10:07:33;11.35;;;6.18;;
52956;SDS011;38819;42.692;23.342;2023-05-27T10:10:04;9.32;;;5.03;;
52956;SDS011;38819;42.692;23.342;2023-05-27T10:12:31;5.70;;;4.55;;
52956;SDS011;38819;42.692;23.342;2023-05-27T10:14:57;7.60;;;5.63;;
52956;SDS011;38819;42.692;23.342;2023-05-27T10:17:23;8.00;;;5.03;;
52956;SDS011;38819;42.692;23.342;2023-05-27T10:19:58;7.40;;;5.20;;
52956;SDS011;38819;42.692;23.342;2023-05-27T10:22:23;5.30;;;4.78;;
52956;SDS011;38819;42.692;23.342;2023-05-27T10:24:49;11.10;;;5.22;;
52956;SDS011;38819;42.692;23.342;2023-05-27T10:27:15;8.80;;;4.63;;
52956;SDS011;38819;42.692;23.342;2023-05-27T10:29:41;13.98;;;5.18;;
52956;SDS011;38819;42.692;23.342;2023-05-27T10:32:06;6.65;;;4.55;;
52956;SDS011;38819;42.692;23.342;2023-05-27T10:34:35;5.85;;;4.43;;
52956;SDS011;38819;42.692;23.342;2023-05-27T10:37:01;6.70;;;4.10;;
52956;SDS011;38819;42.692;23.342;2023-05-27T10:39:27;5.32;;;4.78;;
52956;SDS011;38819;42.692;23.342;2023-05-27T10:41:53;4.72;;;4.10;;
52956;SDS011;38819;42.692;23.342;2023-05-27T10:47:00;5.85;;;3.80;;
52956;SDS011;38819;42.692;23.342;2023-05-27T10:49:27;6.30;;;4.95;;
52956;SDS011;38819;42.692;23.342;2023-05-27T10:52:00;5.38;;;4.22;;
52956;SDS011;38819;42.692;23.342;2023-05-27T10:54:33;6.30;;;4.60;;
52956;SDS011;38819;42.692;23.342;2023-05-27T10:56:59;5.43;;;4.28;;
52956;SDS011;38819;42.692;23.342;2023-05-27T10:59:28;7.93;;;4.70;;
52956;SDS011;38819;42.692;23.342;2023-05-27T11:02:05;5.93;;;5.32;;
52956;SDS011;38819;42.692;23.342;2023-05-27T11:04:34;4.88;;;4.05;;
52956;SDS011;38819;42.692;23.342;2023-05-27T11:07:00;7.28;;;4.20;;
52956;SDS011;38819;42.692;23.342;2023-05-27T11:09:26;6.18;;;4.72;;
52956;SDS011;38819;42.692;23.342;2023-05-27T11:11:52;6.55;;;4.38;;
52956;SDS011;38819;42.692;23.342;2023-05-27T11:14:18;6.70;;;4.50;;
52956;SDS011;38819;42.692;23.342;2023-05-27T11:16:47;6.63;;;4.47;;
52956;SDS011;38819;42.692;23.342;2023-05-27T11:19:16;12.80;;;4.82;;
52956;SDS011;38819;42.692;23.342;2023-05-27T11:21:45;6.95;;;4.13;;
52956;SDS011;38819;42.692;23.342;2023-05-27T11:24:14;8.50;;;4.60;;
52956;SDS011;38819;42.692;23.342;2023-05-27T11:26:44;8.25;;;6.05;;
52956;SDS011;38819;42.692;23.342;2023-05-27T11:29:15;4.68;;;4.20;;
52956;SDS011;38819;42.692;23.342;2023-05-27T11:31:45;6.85;;;3.60;;
52956;SDS011;38819;42.692;23.342;2023-05-27T11:34:12;6.43;;;3.88;;
52956;SDS011;38819;42.692;23.342;2023-05-27T11:36:39;5.70;;;4.20;;
52956;SDS011;38819;42.692;23.342;2023-05-27T11:39:05;7.72;;;3.65;;
52956;SDS011;38819;42.692;23.342;2023-05-27T11:41:32;9.05;;;4.30;;
52956;SDS011;38819;42.692;23.342;2023-05-27T11:44:04;4.70;;;4.18;;
52956;SDS011;38819;42.692;23.342;2023-05-27T11:46:37;10.95;;;4.07;;
52956;SDS011;38819;42.692;23.342;2023-05-27T11:49:04;7.47;;;4.88;;
52956;SDS011;38819;42.692;23.342;2023-05-27T11:51:34;5.90;;;4.40;;
52956;SDS011;38819;42.692;23.342;2023-05-27T11:54:02;6.88;;;4.47;;
52956;SDS011;38819;42.692;23.342;2023-05-27T11:56:28;5.00;;;4.13;;
52956;SDS011;38819;42.692;23.342;2023-05-27T11:58:54;7.22;;;4.32;;
52956;SDS011;38819;42.692;23.342;2023-05-27T12:01:20;3.97;;;3.57;;
52956;SDS011;38819;42.692;23.342;2023-05-27T12:03:46;8.05;;;4.20;;
52956;SDS011;38819;42.692;23.342;2023-05-27T12:06:11;7.45;;;4.60;;
52956;SDS011;38819;42.692;23.342;2023-05-27T12:08:37;5.32;;;4.60;;
52956;SDS011;38819;42.692;23.342;2023-05-27T12:11:03;6.72;;;4.28;;
52956;SDS011;38819;42.692;23.342;2023-05-27T12:13:29;4.25;;;3.63;;
52956;SDS011;38819;42.692;23.342;2023-05-27T12:15:56;8.95;;;4.13;;
52956;SDS011;38819;42.692;23.342;2023-05-27T12:18:22;4.57;;;3.70;;
52956;SDS011;38819;42.692;23.342;2023-05-27T12:20:48;5.90;;;4.07;;
52956;SDS011;38819;42.692;23.342;2023-05-27T12:23:14;6.00;;;4.18;;
52956;SDS011;38819;42.692;23.342;2023-05-27T12:25:39;7.40;;;3.75;;
52956;SDS011;38819;42.692;23.342;2023-05-27T12:28:06;5.13;;;3.60;;
52956;SDS011;38819;42.692;23.342;2023-05-27T12:30:32;5.05;;;4.05;;
52956;SDS011;38819;42.692;23.342;2023-05-27T12:32:58;7.00;;;3.95;;
52956;SDS011;38819;42.692;23.342;2023-05-27T12:35:24;6.30;;;4.22;;
52956;SDS011;38819;42.692;23.342;2023-05-27T12:37:50;4.32;;;3.88;;
52956;SDS011;38819;42.692;23.342;2023-05-27T12:40:15;4.50;;;3.75;;
52956;SDS011;38819;42.692;23.342;2023-05-27T12:42:41;5.03;;;3.80;;
52956;SDS011;38819;42.692;23.342;2023-05-27T12:45:08;5.00;;;3.70;;
52956;SDS011;38819;42.692;23.342;2023-05-27T12:47:34;5.95;;;4.70;;
52956;SDS011;38819;42.692;23.342;2023-05-27T12:49:59;6.13;;;4.28;;
52956;SDS011;38819;42.692;23.342;2023-05-27T12:52:25;4.72;;;4.32;;
52956;SDS011;38819;42.692;23.342;2023-05-27T12:54:50;6.30;;;3.72;;
52956;SDS011;38819;42.692;23.342;2023-05-27T12:57:16;4.30;;;3.72;;
52956;SDS011;38819;42.692;23.342;2023-05-27T12:59:41;3.75;;;3.45;;
52956;SDS011;38819;42.692;23.342;2023-05-27T13:02:06;4.72;;;3.92;;
52956;SDS011;38819;42.692;23.342;2023-05-27T13:04:32;5.80;;;4.45;;
52956;SDS011;38819;42.692;23.342;2023-05-27T13:06:58;6.35;;;3.78;;
52956;SDS011;38819;42.692;23.342;2023-05-27T13:09:23;6.90;;;3.33;;
52956;SDS011;38819;42.692;23.342;2023-05-27T13:11:49;4.72;;;4.00;;
52956;SDS011;38819;42.692;23.342;2023-05-27T13:14:14;8.60;;;4.03;;
52956;SDS011;38819;42.692;23.342;2023-05-27T13:16:40;6.13;;;3.92;;
52956;SDS011;38819;42.692;23.342;2023-05-27T13:19:05;4.28;;;3.72;;
52956;SDS011;38819;42.692;23.342;2023-05-27T13:21:30;6.88;;;4.55;;
52956;SDS011;38819;42.692;23.342;2023-05-27T13:23:57;5.60;;;3.90;;
52956;SDS011;38819;42.692;23.342;2023-05-27T13:26:22;4.38;;;3.97;;
52956;SDS011;38819;42.692;23.342;2023-05-27T13:28:48;9.52;;;4.03;;
52956;SDS011;38819;42.692;23.342;2023-05-27T13:31:15;6.55;;;3.70;;
52956;SDS011;38819;42.692;23.342;2023-05-27T13:33:41;4.15;;;3.65;;
52956;SDS011;38819;42.692;23.342;2023-05-27T13:36:07;5.40;;;4.22;;
52956;SDS011;38819;42.692;23.342;2023-05-27T13:38:32;4.57;;;3.78;;
52956;SDS011;38819;42.692;23.342;2023-05-27T13:40:58;4.80;;;4.00;;
52956;SDS011;38819;42.692;23.342;2023-05-27T13:43:24;8.53;;;4.27;;
52956;SDS011;38819;42.692;23.342;2023-05-27T13:45:50;6.43;;;3.47;;
52956;SDS011;38819;42.692;23.342;2023-05-27T13:48:16;4.00;;;3.60;;
52956;SDS011;38819;42.692;23.342;2023-05-27T13:50:41;3.30;;;3.00;;
52956;SDS011;38819;42.692;23.342;2023-05-27T13:53:07;4.70;;;3.67;;
52956;SDS011;38819;42.692;23.342;2023-05-27T13:55:32;4.10;;;3.35;;
52956;SDS011;38819;42.692;23.342;2023-05-27T13:57:58;5.80;;;4.10;;
52956;SDS011;38819;42.692;23.342;2023-05-27T14:00:24;4.60;;;3.78;;
52956;SDS011;38819;42.692;23.342;2023-05-27T14:02:49;6.20;;;3.28;;
52956;SDS011;38819;42.692;23.342;2023-05-27T14:05:15;4.38;;;3.50;;
52956;SDS011;38819;42.692;23.342;2023-05-27T14:07:41;3.63;;;3.33;;
52956;SDS011;38819;42.692;23.342;2023-05-27T14:10:11;3.97;;;3.50;;
52956;SDS011;38819;42.692;23.342;2023-05-27T14:12:36;5.35;;;3.65;;
52956;SDS011;38819;42.692;23.342;2023-05-27T14:15:02;6.22;;;3.70;;
52956;SDS011;38819;42.692;23.342;2023-05-27T14:17:28;7.30;;;4.38;;
52956;SDS011;38819;42.692;23.342;2023-05-27T14:19:53;6.57;;;3.83;;
52956;SDS011;38819;42.692;23.342;2023-05-27T14:22:19;6.07;;;3.60;;
52956;SDS011;38819;42.692;23.342;2023-05-27T14:24:45;4.72;;;3.53;;
52956;SDS011;38819;42.692;23.342;2023-05-27T14:27:10;5.50;;;4.00;;
52956;SDS011;38819;42.692;23.342;2023-05-27T14:29:36;6.68;;;3.80;;
52956;SDS011;38819;42.692;23.342;2023-05-27T14:32:02;5.70;;;3.83;;
52956;SDS011;38819;42.692;23.342;2023-05-27T14:34:28;5.03;;;3.92;;
52956;SDS011;38819;42.692;23.342;2023-05-27T14:36:53;4.05;;;3.13;;
52956;SDS011;38819;42.692;23.342;2023-05-27T14:39:19;4.05;;;3.75;;
52956;SDS011;38819;42.692;23.342;2023-05-27T14:41:45;3.85;;;3.42;;